Home > Products > Valid Products > MTR

000
SAUS43 KDDC 061557
MTRP28
METAR KP28 061556Z AUTO 24003KT 06/M02 A3037 RMK AO1 SLP296
T00561022





000
SAUS43 KDDC 061457
MTRP28
METAR KP28 061456Z AUTO 21006KT 00/M04 A3038 RMK AO1 SLP300
T00001039 53006





000
SAUS43 KDDC 061357
MTRP28
METAR KP28 061356Z AUTO 17005KT M03/M06 A3036 RMK AO1 SLP294
T10331056





000
SAUS43 KDDC 061258
MTRP28
METAR KP28 061256Z AUTO 17006KT M04/M07 A3036 RMK AO1 SLP295
T10441067





000
SAUS43 KDDC 061258
MTRP28
METAR KP28 061256Z AUTO 17006KT M04/M07 A3036 RMK AO1 SLP295
T10441067





000
SAUS43 KDDC 061158
MTRP28
METAR KP28 061156Z AUTO 15006KT M04/M07 A3036 RMK AO1 SLP292
T10441067 11022 21044 55005





000
SAUS43 KDDC 061158
MTRP28
METAR KP28 061156Z AUTO 15006KT M04/M07 A3036 RMK AO1 SLP292
T10441067 11022 21044 55005





000
SAUS43 KDDC 061058
MTRP28
METAR KP28 061056Z AUTO 16004KT M04/M07 A3035 RMK AO1 SLP290
T10441067





000
SAUS43 KDDC 061058
MTRP28
METAR KP28 061056Z AUTO 16004KT M04/M07 A3035 RMK AO1 SLP290
T10441067





000
SAUS43 KDDC 060957
MTRP28
METAR KP28 060956Z AUTO 16005KT M04/M06 A3035 RMK AO1 SLP290
T10391061





000
SAUS43 KDDC 060857
MTRP28
METAR KP28 060856Z AUTO 15004KT M03/M06 A3037 RMK AO1 SLP297
T10331061 56007





000
SAUS43 KDDC 060757
MTRP28
METAR KP28 060756Z AUTO 16005KT M03/M06 A3038 RMK AO1 SLP299
T10331061





000
SAUS43 KDDC 060657
MTRP28
METAR KP28 060656Z AUTO 17003KT M03/M06 A3038 RMK AO1 SLP301
T10281061





000
SAUS43 KDDC 060557
MTRP28
METAR KP28 060556Z AUTO 15005KT M02/M06 A3040 RMK AO1 SLP307
T10221061 10072 21022 400891122 58002





000
SAUS43 KDDC 060457
MTRP28
METAR KP28 060456Z AUTO 15004KT M01/M06 A3041 RMK AO1 SLP313
T10111056





000
SAUS43 KDDC 060457
MTRP28
METAR KP28 060456Z AUTO 15004KT M01/M06 A3041 RMK AO1 SLP313
T10111056





000
SAUS43 KDDC 060357
MTRP28
METAR KP28 060356Z AUTO 16006KT M01/M06 A3041 RMK AO1 SLP312
T10061056





000
SAUS43 KDDC 060357
MTRP28
METAR KP28 060356Z AUTO 16006KT M01/M06 A3041 RMK AO1 SLP312
T10061056





000
SAUS43 KDDC 060257
MTRP28
METAR KP28 060256Z AUTO 17008KT 01/M06 A3040 RMK AO1 SLP312
T00061056 53005





000
SAUS43 KDDC 060257
MTRP28
METAR KP28 060256Z AUTO 17008KT 01/M06 A3040 RMK AO1 SLP312
T00061056 53005





000
SAUS43 KDDC 060157
MTRP28
METAR KP28 060156Z AUTO 15010KT 03/M07 A3038 RMK AO1 SLP304
T00281072





000
SAUS43 KDDC 060157
MTRP28
METAR KP28 060156Z AUTO 15010KT 03/M07 A3038 RMK AO1 SLP304
T00281072





000
SAUS43 KDDC 060057
MTRP28
METAR KP28 060056Z AUTO 14007KT 03/M08 A3038 RMK AO1 SLP309
T00331083





000
SAUS43 KDDC 060057
MTRP28
METAR KP28 060056Z AUTO 14007KT 03/M08 A3038 RMK AO1 SLP309
T00331083





000
SAUS43 KDDC 052357
MTRP28
METAR KP28 052356Z AUTO 19006KT 07/M11 A3039 RMK AO1 SLP307
T00721106 10089 20044 55003





000
SAUS43 KDDC 052357
MTRP28
METAR KP28 052356Z AUTO 19006KT 07/M11 A3039 RMK AO1 SLP307
T00721106 10089 20044 55003





000
SAUS43 KDDC 052257
MTRP28
METAR KP28 052256Z AUTO 20007KT 08/M12 A3038 RMK AO1 SLP305
T00781117





000
SAUS43 KDDC 052257
MTRP28
METAR KP28 052256Z AUTO 20007KT 08/M12 A3038 RMK AO1 SLP305
T00781117





000
SAUS43 KDDC 052158
MTRP28
METAR KP28 052156Z AUTO 29005G14KT 08/M11 A3038 RMK AO1 SLP306
T00831111





000
SAUS43 KDDC 052057
MTRP28
METAR KP28 052056Z AUTO 25007KT 07/M11 A3040 RMK AO1 SLP310
T00721106 58028





000
SAUS43 KDDC 052057
MTRP28
METAR KP28 052056Z AUTO 25007KT 07/M11 A3040 RMK AO1 SLP310
T00721106 58028





000
SAUS43 KDDC 051957
MTRP28
METAR KP28 051956Z AUTO 29008KT 07/M11 A3042 RMK AO1 SLP318
T00671106





000
SAUS43 KDDC 051957
MTRP28
METAR KP28 051956Z AUTO 29008KT 07/M11 A3042 RMK AO1 SLP318
T00671106





000
SAUS43 KDDC 051857
MTRP28
METAR KP28 051856Z AUTO 26009G17KT 06/M09 A3046 RMK AO1 SLP331
T00611094





000
SAUS43 KDDC 051757
MTRP28
METAR KP28 051756Z AUTO 27009G17KT 04/M10 A3048 RMK AO1 SLP340
T00441100 10050 21122 58006





000
SAUS43 KDDC 051757
MTRP28
METAR KP28 051756Z AUTO 27009G17KT 04/M10 A3048 RMK AO1 SLP340
T00441100 10050 21122 58006





000
SAUS43 KDDC 051657
MTRP28
METAR KP28 051656Z AUTO 27011KT 03/M11 A3049 RMK AO1 SLP343
T00281111





000
SAUS43 KDDC 051557
MTRP28
METAR KP28 051556Z AUTO 26003KT 00/M08 A3050 RMK AO1 SLP346
T00001083





000
SAUS43 KDDC 051557
MTRP28
METAR KP28 051556Z AUTO 26003KT 00/M08 A3050 RMK AO1 SLP346
T00001083





000
SAUS43 KDDC 051458
MTRP28
METAR KP28 051456Z AUTO 00000KT M04/M09 A3050 RMK AO1 SLP349
T10441089 53008





000
SAUS43 KDDC 051458
MTRP28
METAR KP28 051456Z AUTO 00000KT M04/M09 A3050 RMK AO1 SLP349
T10441089 53008





000
SAUS43 KDDC 051357
MTRP28
METAR KP28 051356Z AUTO 00000KT M09/M12 A3049 RMK AO1 SLP348
T10891122





000
SAUS43 KDDC 051257
MTRP28
METAR KP28 051256Z AUTO 00000KT M12/M14 A3048 RMK AO1 SLP345
T11171144





000
SAUS43 KDDC 051157
MTRP28
METAR KP28 051156Z AUTO 34005KT M12/M14 A3048 RMK AO1 SLP344 60001
70003 T11221139 11078 21122 53009





000
SAUS43 KDDC 051157
MTRP28
METAR KP28 051156Z AUTO 34005KT M12/M14 A3048 RMK AO1 SLP344 60001
70003 T11221139 11078 21122 53009





000
SAUS43 KDDC 051057
MTRP28
METAR KP28 051056Z AUTO 36003KT M12/M14 A3046 RMK AO1 SLP338
T11221139





000
SAUS43 KDDC 051057
MTRP28
METAR KP28 051056Z AUTO 36003KT M12/M14 A3046 RMK AO1 SLP338
T11221139





000
SAUS43 KDDC 050957
MTRP28
METAR KP28 050956Z AUTO 36004KT M12/M13 A3044 RMK AO1 SLP332
T11171133





000
SAUS43 KDDC 050858
MTRP28
METAR KP28 050856Z AUTO 35003KT M11/M13 A3045 RMK AO1 SLP334 60001
T11061128 53006





000
SAUS43 KDDC 050758
MTRP28
METAR KP28 050756Z AUTO 35003KT M10/M12 A3044 RMK AO1 SLP330 P0001
T11001117





000
SAUS43 KDDC 050658
MTRP28
METAR KP28 050656Z AUTO 36003KT M09/M11 A3043 RMK AO1 SLP327
T10891111





000
SAUS43 KDDC 050658
MTRP28
METAR KP28 050656Z AUTO 36003KT M09/M11 A3043 RMK AO1 SLP327
T10891111





000
SAUS43 KDDC 050558
MTRP28
METAR KP28 050556Z AUTO 33003KT M08/M11 A3043 RMK AO1 SLP327
T10781106 11011 21078 400001078 50015





000
SAUS43 KDDC 050558
MTRP28
METAR KP28 050556Z AUTO 33003KT M08/M11 A3043 RMK AO1 SLP327
T10781106 11011 21078 400001078 50015





000
SAUS43 KDDC 050457
MTRP28
METAR KP28 050456Z AUTO 00000KT M06/M10 A3043 RMK AO1 SLP328
T10611100





000
SAUS43 KDDC 050457
MTRP28
METAR KP28 050456Z AUTO 00000KT M06/M10 A3043 RMK AO1 SLP328
T10611100





000
SAUS43 KDDC 050357
MTRP28
METAR KP28 050356Z AUTO 01003KT M06/M11 A3041 RMK AO1 SLP319
T10561106





000
SAUS43 KDDC 050357
MTRP28
METAR KP28 050356Z AUTO 01003KT M06/M11 A3041 RMK AO1 SLP319
T10561106





000
SAUS43 KDDC 050257
MTRP28
METAR KP28 050256Z AUTO 00000KT M04/M11 A3038 RMK AO1 SLP310
T10441111 53028





000
SAUS43 KDDC 050257
MTRP28
METAR KP28 050256Z AUTO 00000KT M04/M11 A3038 RMK AO1 SLP310
T10441111 53028





000
SAUS43 KDDC 050157
MTRP28
METAR KP28 050156Z AUTO 04004KT M04/M12 A3035 RMK AO1 SLP300
T10391122





000
SAUS43 KDDC 050157
MTRP28
METAR KP28 050156Z AUTO 04004KT M04/M12 A3035 RMK AO1 SLP300
T10391122





000
SAUS43 KDDC 050057
MTRP28
METAR KP28 050056Z AUTO 03007KT M02/M13 A3030 RMK AO1 SLP281
T10221128





000
SAUS43 KDDC 050057
MTRP28
METAR KP28 050056Z AUTO 03007KT M02/M13 A3030 RMK AO1 SLP281
T10221128





000
SAUS43 KDDC 042357
MTRP28
METAR KP28 042356Z AUTO 03009KT M01/M13 A3029 RMK AO1 PRESRR SLP277
T10111133 11011 21050 51023





000
SAUS43 KDDC 042357
MTRP28
METAR KP28 042356Z AUTO 03009KT M01/M13 A3029 RMK AO1 PRESRR SLP277
T10111133 11011 21050 51023





000
SAUS43 KDDC 042257
MTRP28
METAR KP28 042256Z AUTO 36009KT M02/M12 A3029 RMK AO1 SLP276
T10171117





000
SAUS43 KDDC 042157
MTRP28
METAR KP28 042156Z AUTO 02011KT M02/M11 A3025 RMK AO1 SLP264
T10221111





000
SAUS43 KDDC 042057
MTRP28
METAR KP28 042056Z AUTO 02017G23KT M03/M11 A3022 RMK AO1 SLP253
T10281111 58024





000
SAUS43 KDDC 041957
MTRP28
METAR KP28 041956Z AUTO 01019G25KT M03/M11 A3030 RMK AO1 SLP277
T10331111





000
SAUS43 KDDC 041957
MTRP28
METAR KP28 041956Z AUTO 01019G25KT M03/M11 A3030 RMK AO1 SLP277
T10331111





000
SAUS43 KDDC 041857
MTRP28
METAR KP28 041856Z AUTO 01012G21KT M04/M10 A3030 RMK AO1 SLP278
T10391100





000
SAUS43 KDDC 041757
MTRP28
METAR KP28 041756Z AUTO 02016KT M05/M11 A3030 RMK AO1 SLP276 60002
T10501106 11050 21072 50010





000
SAUS43 KDDC 041657
MTRP28
METAR KP28 041656Z AUTO 02016KT M05/M10 A3030 RMK AO1 SLP279
T10501100





000
SAUS43 KDDC 041657
MTRP28
METAR KP28 041656Z AUTO 02016KT M05/M10 A3030 RMK AO1 SLP279
T10501100





000
SAUS43 KDDC 041557
MTRP28
METAR KP28 041556Z AUTO 02014KT M06/M09 A3028 RMK AO1 SLP269
T10611094





000
SAUS43 KDDC 041557
MTRP28
METAR KP28 041556Z AUTO 02014KT M06/M09 A3028 RMK AO1 SLP269
T10611094





000
SAUS43 KDDC 041457
MTRP28
METAR KP28 041456Z AUTO 02016G22KT M07/M10 A3027 RMK AO1 PK WND
02026/1444 PRESRR SLP266 P0001 60002 T10671100 52041





000
SAUS43 KDDC 041457
MTRP28
METAR KP28 041456Z AUTO 02016G22KT M07/M10 A3027 RMK AO1 PK WND
02026/1444 PRESRR SLP266 P0001 60002 T10671100 52041





000
SAUS43 KDDC 041357
MTRP28
METAR KP28 041356Z AUTO 02016G20KT M07/M09 A3023 RMK AO1 PRESRR
SLP252 T10671089





000
SAUS43 KDDC 041357
MTRP28
METAR KP28 041356Z AUTO 02016G20KT M07/M09 A3023 RMK AO1 PRESRR
SLP252 T10671089





000
SAUS43 KDDC 041257
MTRP28
METAR KP28 041256Z AUTO 03017G23KT M07/M08 A3018 RMK AO1 SLP233
P0001 T10671083





000
SAUS43 KDDC 041257
MTRP28
METAR KP28 041256Z AUTO 03017G23KT M07/M08 A3018 RMK AO1 SLP233
P0001 T10671083





000
SAUS43 KDDC 041157
MTRP28
METAR KP28 041156Z AUTO 02018G26KT M06/M09 A3014 RMK AO1 PK WND
02029/1057 SLP219 T10611094 10000 21061 53023





000
SAUS43 KDDC 041157
MTRP28
METAR KP28 041156Z AUTO 02018G26KT M06/M09 A3014 RMK AO1 PK WND
02029/1057 SLP219 T10611094 10000 21061 53023





000
SAUS43 KDDC 041057
MTRP28
METAR KP28 041056Z AUTO 03023G29KT M06/M09 A3011 RMK AO1 PK WND
03029/1054 SLP207 T10561094





000
SAUS43 KDDC 041057
MTRP28
METAR KP28 041056Z AUTO 03023G29KT M06/M09 A3011 RMK AO1 PK WND
03029/1054 SLP207 T10561094





000
SAUS43 KDDC 040957
MTRP28
METAR KP28 040956Z AUTO 03019G24KT M05/M08 A3008 RMK AO1 PK WND
02027/0926 SLP197 T10501078





000
SAUS43 KDDC 040857
MTRP28
METAR KP28 040856Z AUTO 03016KT M04/M08 A3007 RMK AO1 PK WND
03028/0759 SLP192 T10391078 51020





000
SAUS43 KDDC 040757
MTRP28
METAR KP28 040756Z AUTO 02019G24KT M02/M08 A3005 RMK AO1 SLP185
T10221078





000
SAUS43 KDDC 040757
MTRP28
METAR KP28 040756Z AUTO 02019G24KT M02/M08 A3005 RMK AO1 SLP185
T10221078





000
SAUS43 KDDC 040657
MTRP28
METAR KP28 040656Z AUTO 02016G21KT M01/M07 A3003 RMK AO1 SLP179
T10061067





000
SAUS43 KDDC 040657
MTRP28
METAR KP28 040656Z AUTO 02016G21KT M01/M07 A3003 RMK AO1 SLP179
T10061067





000
SAUS43 KDDC 040557
MTRP28
METAR KP28 040556Z AUTO 03016G25KT 00/M07 A3001 RMK AO1 SLP167
T00001072 10061 20000 401110000 51019





000
SAUS43 KDDC 040557
MTRP28
METAR KP28 040556Z AUTO 03016G25KT 00/M07 A3001 RMK AO1 SLP167
T00001072 10061 20000 401110000 51019





000
SAUS43 KDDC 040457
MTRP28
METAR KP28 040456Z AUTO 02016G24KT 01/M07 A3000 RMK AO1 SLP165
T00061067





000
SAUS43 KDDC 040457
MTRP28
METAR KP28 040456Z AUTO 02016G24KT 01/M07 A3000 RMK AO1 SLP165
T00061067





000
SAUS43 KDDC 040357
MTRP28
METAR KP28 040356Z AUTO 03012KT 02/M06 A2997 RMK AO1 SLP157
T00171056





000
SAUS43 KDDC 040257
MTRP28
METAR KP28 040256Z AUTO 02012G22KT 02/M06 A2995 RMK AO1 SLP151
T00171056 53024





000
SAUS43 KDDC 040257
MTRP28
METAR KP28 040256Z AUTO 02012G22KT 02/M06 A2995 RMK AO1 SLP151
T00171056 53024





000
SAUS43 KDDC 040157
MTRP28
METAR KP28 040156Z AUTO 02014G20KT 04/M03 A2992 RMK AO1 SLP140
T00391028





000
SAUS43 KDDC 040157
MTRP28
METAR KP28 040156Z AUTO 02014G20KT 04/M03 A2992 RMK AO1 SLP140
T00391028





000
SAUS43 KDDC 040057
MTRP28
METAR KP28 040056Z AUTO 02008KT 05/M02 A2988 RMK AO1 SLP126
T00501017





000
SAUS43 KDDC 040057
MTRP28
METAR KP28 040056Z AUTO 02008KT 05/M02 A2988 RMK AO1 SLP126
T00501017





000
SAUS43 KDDC 032357
MTRP28
METAR KP28 032356Z AUTO 01009KT 06/M02 A2988 RMK AO1 SLP124
T00611017 10111 20061 51013





000
SAUS43 KDDC 032357
MTRP28
METAR KP28 032356Z AUTO 01009KT 06/M02 A2988 RMK AO1 SLP124
T00611017 10111 20061 51013





000
SAUS43 KDDC 032257
MTRP28
METAR KP28 032256Z AUTO 03011KT 07/M02 A2987 RMK AO1 SLP121
T00721017





000
SAUS43 KDDC 032257
MTRP28
METAR KP28 032256Z AUTO 03011KT 07/M02 A2987 RMK AO1 SLP121
T00721017





000
SAUS43 KDDC 032157
MTRP28
METAR KP28 032156Z AUTO 02011KT 08/M02 A2986 RMK AO1 SLP119
T00781017





000
SAUS43 KDDC 032100
MTRP28
METAR KP28 032056Z AUTO 02013KT 08/M02 A2984 RMK AO1 SLP111
T00781017 53006





000
SAUS43 KDDC 032100
MTRP28
METAR KP28 032056Z AUTO 02013KT 08/M02 A2984 RMK AO1 SLP111
T00781017 53006





000
SAUS43 KDDC 032000
MTRP28
METAR KP28 031956Z AUTO 36015KT 08/M01 A2983 RMK AO1 SLP109
T00781006





000
SAUS43 KDDC 031900
MTRP28
METAR KP28 031856Z AUTO 36017G23KT 09/02 A2982 RMK AO1 SLP103
T00890017





000
SAUS43 KDDC 031800
MTRP28
METAR KP28 031756Z AUTO 34014G21KT 11/03 A2982 RMK AO1 SLP102
T01110033 10111 20017 50015





000
SAUS43 KDDC 031700
MTRP28
METAR KP28 031656Z AUTO 31009KT 10/03 A2983 RMK AO1 SLP107 T01000033





    US Dept of Commerce
    National Oceanic and Atmospheric Administration
    National Weather Service
    1325 East West Highway
    Silver Spring, MD 20910
    Page Author: NWS Internet Services Team
Disclaimer
Information Quality
Credits
Glossary
Privacy Policy
Freedom of Information Act (FOIA)
About Us
Career Opportunities